Time;durP1;ratioP1;P1;durP2;ratioP2;P2;SDS_P1;SDS_P2;PMS_P1;PMS_P2;Temp;Humidity;BMP_temperature;BMP_pressure;BME280_temperature;BME280_humidity;BME280_pressure;Samples;Min_cycle;Max_cycle;Signal;HPM_P1;HPM_P2
2022/05/06 00:01:45;;;;;;;13.16;5.53;;;;;;;10.18;100.00;100896.41;4807088;22;10003008;-72
2022/05/06 00:04:11;;;;;;;16.25;6.25;;;;;;;10.32;100.00;100892.00;5018568;28;20084;-71
2022/05/06 00:06:36;;;;;;;13.27;5.90;;;;;;;10.60;100.00;100924.72;5018046;28;20105;-70
2022/05/06 00:09:03;;;;;;;9.65;5.43;;;;;;;10.69;100.00;100911.88;5019147;28;20061;-71
2022/05/06 00:11:29;;;;;;;9.85;5.53;;;;;;;10.36;100.00;100925.84;5000806;28;20418;-71
2022/05/06 00:13:55;;;;;;;12.07;5.20;;;;;;;10.46;100.00;100892.69;5022353;28;20033;-71
2022/05/06 00:16:21;;;;;;;11.25;5.88;;;;;;;10.38;100.00;100822.47;5019663;28;20392;-70
2022/05/06 00:18:47;;;;;;;9.55;5.38;;;;;;;10.60;100.00;100915.38;5002855;28;20477;-71
2022/05/06 00:21:13;;;;;;;10.43;5.82;;;;;;;10.39;100.00;100880.91;5020051;28;20491;-71
2022/05/06 00:23:39;;;;;;;10.73;6.20;;;;;;;10.23;100.00;100881.97;5019585;28;20522;-71
2022/05/06 00:26:04;;;;;;;9.82;6.38;;;;;;;9.62;100.00;100880.91;5021219;28;20036;-70
2022/05/06 00:28:30;;;;;;;10.70;6.90;;;;;;;9.44;100.00;100879.38;5020355;28;20030;-70
2022/05/06 00:30:56;;;;;;;15.25;7.32;;;;;;;9.89;100.00;100933.09;5018796;28;20041;-70
2022/05/06 00:33:24;;;;;;;12.52;7.15;;;;;;;10.00;100.00;100883.06;5020403;28;20040;-71
2022/05/06 00:36:00;;;;;;;10.77;7.13;;;;;;;9.75;100.00;100876.53;5018766;28;20022;-70
2022/05/06 00:38:27;;;;;;;9.75;7.20;;;;;;;9.63;100.00;100867.34;5016900;28;20026;-70
2022/05/06 00:40:53;;;;;;;11.38;6.68;;;;;;;9.70;100.00;100912.16;5004129;28;20055;-71
2022/05/06 00:43:20;;;;;;;11.40;6.72;;;;;;;9.94;100.00;100929.69;5015691;28;20045;-71
2022/05/06 00:45:53;;;;;;;11.73;7.10;;;;;;;9.64;100.00;100929.97;5000452;28;20407;-71
2022/05/06 00:48:22;;;;;;;10.10;6.20;;;;;;;9.46;100.00;100867.53;5000307;28;20188;-71
2022/05/06 00:50:48;;;;;;;11.55;6.63;;;;;;;9.45;100.00;100857.38;5021035;28;20045;-71
2022/05/06 00:53:14;;;;;;;11.80;6.60;;;;;;;10.03;100.00;100899.09;5018681;28;20037;-70
2022/05/06 00:55:40;;;;;;;14.35;7.55;;;;;;;9.61;100.00;100899.53;5020115;28;20049;-71
2022/05/06 00:58:06;;;;;;;13.35;7.90;;;;;;;10.23;100.00;100907.38;4999285;28;20057;-71
2022/05/06 01:00:32;;;;;;;21.52;10.20;;;;;;;9.36;100.00;100853.22;5015111;28;20030;-71
2022/05/06 01:02:59;;;;;;;17.50;9.60;;;;;;;10.14;100.00;100902.38;5001856;28;20045;-70
2022/05/06 01:05:24;;;;;;;14.77;8.20;;;;;;;9.91;100.00;100906.00;5020080;28;20087;-70
2022/05/06 01:07:51;;;;;;;12.98;8.40;;;;;;;9.81;100.00;100915.41;5018426;28;20025;-71
2022/05/06 01:10:18;;;;;;;13.82;8.48;;;;;;;8.84;100.00;100848.56;5000349;28;20034;-71
2022/05/06 01:12:44;;;;;;;14.60;8.15;;;;;;;9.15;100.00;100847.50;5014990;28;20037;-70
2022/05/06 01:15:23;;;;;;;17.17;8.50;;;;;;;9.10;100.00;100867.81;5019556;28;20083;-70
2022/05/06 01:17:50;;;;;;;16.45;8.93;;;;;;;9.22;100.00;100900.72;5011685;28;20097;-71
2022/05/06 01:20:16;;;;;;;19.33;9.77;;;;;;;9.27;100.00;100849.94;5022075;28;20104;-71
2022/05/06 01:22:50;;;;;;;20.42;10.25;;;;;;;9.42;100.00;100890.41;5023505;28;20021;-71
2022/05/06 01:25:16;;;;;;;17.88;10.43;;;;;;;9.57;100.00;100897.88;5018324;28;20056;-70
2022/05/06 01:27:52;;;;;;;15.15;8.80;;;;;;;8.93;100.00;100821.47;5020940;28;20025;-71
2022/05/06 01:30:42;;;;;;;13.57;8.18;;;;;;;9.40;100.00;100899.72;5005551;28;20132;-70
2022/05/06 01:33:14;;;;;;;11.40;7.55;;;;;;;9.07;100.00;100834.03;5004127;28;20025;-72
2022/05/06 01:35:44;;;;;;;13.75;8.05;;;;;;;9.50;100.00;100888.63;5021505;28;20033;-71
2022/05/06 01:38:17;;;;;;;13.02;7.35;;;;;;;9.77;100.00;100895.97;5023602;28;20029;-71
2022/05/06 01:40:47;;;;;;;14.02;7.78;;;;;;;9.05;100.00;100831.50;5021530;28;20030;-71
2022/05/06 01:43:15;;;;;;;15.15;7.80;;;;;;;9.12;100.00;100839.91;5022009;28;20037;-72
2022/05/06 01:45:44;;;;;;;12.05;7.53;;;;;;;9.34;100.00;100899.78;5023178;28;20033;-72
2022/05/06 01:48:11;;;;;;;14.52;7.97;;;;;;;9.08;100.00;100891.50;5021752;28;20117;-71
2022/05/06 01:50:37;;;;;;;15.68;7.95;;;;;;;8.73;100.00;100846.13;5021005;28;20040;-71
2022/05/06 01:53:03;;;;;;;16.98;8.18;;;;;;;8.93;100.00;100901.78;5020607;28;20504;-70
2022/05/06 01:55:28;;;;;;;15.15;8.30;;;;;;;8.54;100.00;100819.19;5019349;28;20037;-70
2022/05/06 01:57:54;;;;;;;14.30;8.27;;;;;;;9.26;100.00;100835.56;5023102;28;20509;-70
2022/05/06 02:00:19;;;;;;;13.73;8.00;;;;;;;8.96;100.00;100861.16;5022643;28;20052;-71
2022/05/06 02:02:45;;;;;;;14.00;8.32;;;;;;;9.36;100.00;100890.44;5020619;28;20069;-70
2022/05/06 02:05:17;;;;;;;13.75;7.57;;;;;;;9.40;100.00;100870.13;5023696;28;20049;-71
2022/05/06 02:07:46;;;;;;;13.57;7.93;;;;;;;9.29;100.00;100827.94;5001161;28;20034;-70
2022/05/06 02:10:12;;;;;;;13.93;7.75;;;;;;;9.43;100.00;100894.59;5021735;28;20026;-71
2022/05/06 02:12:37;;;;;;;14.23;7.10;;;;;;;8.69;100.00;100826.72;5007263;28;20026;-71
2022/05/06 02:15:04;;;;;;;14.73;7.30;;;;;;;8.29;100.00;100800.78;5020683;28;20022;-71
2022/05/06 02:17:29;;;;;;;10.32;6.35;;;;;;;8.66;100.00;100817.44;5017836;28;20030;-70
2022/05/06 02:19:55;;;;;;;11.15;6.60;;;;;;;8.77;100.00;100884.97;5023203;28;20027;-71
2022/05/06 02:22:21;;;;;;;11.02;6.15;;;;;;;8.62;100.00;100876.59;5020517;28;20117;-70
2022/05/06 02:24:46;;;;;;;9.38;6.10;;;;;;;8.36;100.00;100854.78;5022085;28;20037;-71
2022/05/06 02:27:12;;;;;;;11.00;6.22;;;;;;;8.27;100.00;100815.16;5000748;28;20033;-71
2022/05/06 02:29:38;;;;;;;9.35;6.70;;;;;;;7.77;100.00;100805.19;5005553;28;20506;-70
2022/05/06 02:34:48;;;;;;;9.80;6.40;;;;;;;8.50;100.00;100815.00;5017532;28;20044;-70
2022/05/06 02:37:14;;;;;;;10.18;7.03;;;;;;;8.50;100.00;100874.13;5019128;28;20435;-70
2022/05/06 02:39:39;;;;;;;10.55;7.00;;;;;;;7.81;100.00;100811.94;5022189;28;20033;-70
2022/05/06 02:42:06;;;;;;;12.20;6.68;;;;;;;8.20;100.00;100805.03;5019783;28;20110;-70
2022/05/06 02:44:31;;;;;;;9.98;6.55;;;;;;;8.81;100.00;100884.09;5021756;28;20026;-71
2022/05/06 02:46:57;;;;;;;12.05;7.15;;;;;;;8.53;100.00;100853.84;5021905;28;20103;-71
2022/05/06 02:49:22;;;;;;;11.73;7.10;;;;;;;8.96;100.00;100877.22;5021827;28;20484;-71
2022/05/06 02:51:49;;;;;;;11.65;8.63;;;;;;;8.61;100.00;100877.47;5021434;28;20061;-71
2022/05/06 02:54:17;;;;;;;13.82;9.90;;;;;;;8.65;100.00;100886.72;5021326;28;20037;-70
2022/05/06 02:56:42;;;;;;;16.98;11.82;;;;;;;8.57;100.00;100896.06;5022303;28;20411;-70
2022/05/06 02:59:08;;;;;;;19.48;14.07;;;;;;;7.84;100.00;100813.63;5019748;28;20034;-70
2022/05/06 03:01:33;;;;;;;17.10;11.98;;;;;;;8.05;100.00;100816.06;5019563;28;20028;-70
2022/05/06 03:03:58;;;;;;;17.13;10.88;;;;;;;7.70;100.00;100871.88;5001836;28;20400;-70
2022/05/06 03:06:24;;;;;;;20.10;11.25;;;;;;;8.20;100.00;100823.56;5003831;28;20535;-70
2022/05/06 03:08:49;;;;;;;16.25;11.13;;;;;;;8.57;100.00;100860.59;5019781;28;20488;-70
2022/05/06 03:11:15;;;;;;;13.82;10.07;;;;;;;8.12;100.00;100875.94;5020326;28;20032;-70
2022/05/06 03:13:41;;;;;;;12.30;7.82;;;;;;;8.28;100.00;100864.13;5021403;28;20018;-70
2022/05/06 03:16:06;;;;;;;13.55;5.97;;;;;;;8.19;100.00;100882.69;5015935;28;20022;-71
2022/05/06 03:18:32;;;;;;;16.77;8.60;;;;;;;8.32;100.00;100896.19;5001812;28;20049;-71
2022/05/06 03:20:57;;;;;;;12.02;6.93;;;;;;;8.23;100.00;100904.63;5019387;28;20479;-70
2022/05/06 03:23:23;;;;;;;9.00;6.32;;;;;;;7.38;100.00;100829.75;5017600;28;20033;-70
2022/05/06 03:25:48;;;;;;;6.78;5.78;;;;;;;7.82;100.00;100894.59;5020883;28;20079;-70
2022/05/06 03:28:14;;;;;;;7.85;5.80;;;;;;;7.58;100.00;100840.69;5020675;28;20103;-71
2022/05/06 03:30:47;;;;;;;12.15;6.00;;;;;;;7.93;100.00;100883.59;5001690;28;20577;-70
2022/05/06 03:33:15;;;;;;;13.05;6.38;;;;;;;7.10;100.00;100850.81;5019985;28;20510;-70
2022/05/06 03:35:40;;;;;;;10.18;6.03;;;;;;;7.84;100.00;100818.69;5023850;28;20061;-70
2022/05/06 03:38:07;;;;;;;9.68;5.22;;;;;;;7.58;100.00;100892.13;4997803;28;20053;-71
2022/05/06 03:40:33;;;;;;;8.35;4.88;;;;;;;8.00;100.00;100901.34;5010299;28;20116;-70
2022/05/06 03:42:59;;;;;;;7.35;4.60;;;;;;;8.17;100.00;100919.84;5010989;28;20037;-70
2022/05/06 03:45:25;;;;;;;7.30;4.50;;;;;;;8.11;100.00;100904.66;5004802;28;20069;-70
2022/05/06 03:47:52;;;;;;;9.30;4.10;;;;;;;8.15;100.00;100913.09;4993573;28;20069;-72
2022/05/06 03:53:01;;;;;;;7.68;4.43;;;;;;;8.48;100.00;100913.84;5011094;28;20629;-72
2022/05/06 03:55:27;;;;;;;6.57;4.88;;;;;;;7.93;100.00;100858.28;5010798;28;20034;-72
2022/05/06 03:57:52;;;;;;;9.30;5.22;;;;;;;8.34;100.00;100910.50;5022850;28;20034;-72
2022/05/06 04:00:19;;;;;;;7.55;5.28;;;;;;;8.26;100.00;100853.16;5028527;28;20033;-70
2022/05/06 04:02:46;;;;;;;9.25;5.00;;;;;;;8.49;100.00;100869.94;4995412;28;20054;-70
2022/05/06 04:05:11;;;;;;;6.68;5.10;;;;;;;8.98;100.00;100930.47;5010737;28;20034;-70
2022/05/06 04:07:37;;;;;;;20.10;12.50;;;;;;;8.43;100.00;100875.03;4992578;28;20034;-70
2022/05/06 04:10:03;;;;;;;15.90;11.40;;;;;;;9.07;100.00;100931.25;4993235;28;20034;-70
2022/05/06 04:12:28;;;;;;;12.32;8.85;;;;;;;9.04;100.00;100938.88;5006636;28;20038;-70
2022/05/06 04:14:54;;;;;;;11.85;5.90;;;;;;;8.82;100.00;100921.25;5010950;28;20041;-70
2022/05/06 04:17:23;;;;;;;11.27;6.32;;;;;;;8.80;100.00;100869.72;5010931;28;20495;-70
2022/05/06 04:25:18;;;;;;;11.15;7.55;;;;;;;9.07;100.00;100892.38;5010289;28;20216;-71
2022/05/06 04:27:44;;;;;;;17.33;10.88;;;;;;;9.49;100.00;100950.38;4996425;28;20121;-70
2022/05/06 04:30:10;;;;;;;16.20;10.45;;;;;;;9.56;100.00;100921.59;5009838;28;20022;-71
2022/05/06 04:32:36;;;;;;;14.93;9.68;;;;;;;9.35;100.00;100871.84;5010666;28;20454;-70
2022/05/06 04:35:06;;;;;;;16.05;7.65;;;;;;;9.93;100.00;100942.38;4993209;28;20030;-71
2022/05/06 04:37:32;;;;;;;11.07;7.88;;;;;;;9.95;100.00;100941.53;5010668;28;20091;-71
2022/05/06 04:39:58;;;;;;;16.77;7.55;;;;;;;9.94;100.00;100929.69;5010550;28;20026;-71
2022/05/06 04:42:24;;;;;;;11.52;7.53;;;;;;;10.62;100.00;100935.72;4993082;28;20029;-71
2022/05/06 04:44:49;;;;;;;14.40;9.52;;;;;;;10.88;100.00;100956.53;4992761;28;20463;-71
2022/05/06 04:47:15;;;;;;;10.93;8.00;;;;;;;10.52;100.00;100893.47;5010709;28;20045;-71
2022/05/06 04:49:40;;;;;;;12.50;6.63;;;;;;;10.76;100.00;100885.50;4992685;28;20038;-70
2022/05/06 04:52:06;;;;;;;10.45;5.75;;;;;;;11.21;100.00;100938.28;5008824;28;20125;-70
2022/05/06 04:54:31;;;;;;;11.02;5.90;;;;;;;10.74;100.00;100910.94;4991393;28;20489;-71
2022/05/06 04:56:57;;;;;;;11.00;6.40;;;;;;;11.07;100.00;100868.94;5009210;28;20030;-71
2022/05/06 04:59:23;;;;;;;9.20;5.80;;;;;;;11.06;100.00;100824.81;5014114;28;20030;-71
2022/05/06 05:01:49;;;;;;;11.07;6.32;;;;;;;11.78;100.00;100901.69;4995313;28;20033;-70
2022/05/06 05:04:14;;;;;;;11.10;6.07;;;;;;;11.43;100.00;100860.66;5013989;28;20041;-70
2022/05/06 05:06:40;;;;;;;8.77;5.90;;;;;;;12.35;100.00;100944.78;4999256;28;20383;-70
2022/05/06 05:09:05;;;;;;;14.38;7.53;;;;;;;12.52;100.00;100937.66;5015640;28;20096;-71
2022/05/06 05:11:33;;;;;;;22.45;13.50;;;;;;;12.65;100.00;100931.41;5033938;28;20099;-70
2022/05/06 05:14:00;;;;;;;17.92;11.82;;;;;;;12.48;100.00;100931.75;5033856;28;20449;-70
2022/05/06 05:16:26;;;;;;;19.42;11.98;;;;;;;12.34;100.00;100836.03;5013385;28;20416;-69
2022/05/06 05:18:52;;;;;;;19.67;12.07;;;;;;;12.94;100.00;100936.72;5013736;28;20026;-71
2022/05/06 05:21:18;;;;;;;10.90;6.30;;;;;;;12.76;100.00;100829.94;5008189;28;20567;-70
2022/05/06 05:23:45;;;;;;;9.07;5.90;;;;;;;13.36;100.00;100930.66;5013771;28;20038;-70
2022/05/06 05:26:10;;;;;;;8.23;4.63;;;;;;;13.57;100.00;100873.06;4994867;28;20080;-71
2022/05/06 05:28:36;;;;;;;11.77;7.78;;;;;;;14.03;100.00;100936.59;5007227;28;20066;-70
2022/05/06 05:31:01;;;;;;;31.90;14.15;;;;;;;13.79;100.00;100933.81;5012567;28;20037;-71
2022/05/06 05:33:27;;;;;;;8.50;4.97;;;;;;;13.67;100.00;100880.47;5017595;28;20033;-71
2022/05/06 05:35:52;;;;;;;16.48;6.25;;;;;;;13.65;100.00;100947.81;5003161;28;20040;-71
2022/05/06 05:38:17;;;;;;;13.25;5.78;;;;;;;13.99;100.00;100950.34;5025494;28;20530;-70
2022/05/06 05:40:43;;;;;;;13.43;5.55;;;;;;;14.49;100.00;100929.38;5009151;28;20030;-68
2022/05/06 05:48:19;;;;;;;12.80;5.10;;;;;;;15.04;100.00;100956.75;5006689;28;20026;-69
2022/05/06 05:48:37;;;;;;;10.15;4.78;;;;;;;14.44;100.00;100895.44;5012889;28;20045;-68
2022/05/06 05:51:03;;;;;;;8.13;5.07;;;;;;;14.59;100.00;100964.91;5009905;28;20037;-69
2022/05/06 05:53:29;;;;;;;13.13;4.90;;;;;;;15.31;100.00;100966.16;5013074;28;20412;-68
2022/05/06 05:55:54;;;;;;;10.90;4.47;;;;;;;15.85;100.00;100961.81;5013030;28;20038;-68
2022/05/06 05:58:20;;;;;;;7.05;3.92;;;;;;;15.79;100.00;100956.91;5013217;28;20125;-69
2022/05/06 06:00:45;;;;;;;6.10;4.00;;;;;;;16.05;100.00;100968.84;5012553;28;20428;-68
2022/05/06 06:03:10;;;;;;;7.30;4.18;;;;;;;16.02;96.78;100951.00;4994807;28;20046;-69
2022/05/06 06:05:37;;;;;;;7.47;4.40;;;;;;;16.49;94.50;100950.19;5012414;28;20397;-68
2022/05/06 06:08:03;;;;;;;9.50;4.53;;;;;;;15.90;97.13;100942.00;5009429;28;20034;-69
2022/05/06 06:10:28;;;;;;;6.10;4.35;;;;;;;16.08;100.00;100904.59;5008524;28;20404;-69
2022/05/06 06:12:56;;;;;;;5.05;3.97;;;;;;;16.34;95.21;100940.44;5012467;28;20053;-69
2022/05/06 06:15:21;;;;;;;5.10;4.00;;;;;;;16.44;100.00;100955.44;5006987;28;20038;-69
2022/05/06 06:17:47;;;;;;;5.15;3.60;;;;;;;16.66;100.00;100899.03;5007397;28;20566;-69
2022/05/06 06:20:12;;;;;;;7.40;3.45;;;;;;;17.13;96.40;100946.00;5012054;28;20052;-68
2022/05/06 06:22:38;;;;;;;9.25;3.80;;;;;;;16.75;100.00;100923.53;5012363;28;20057;-68
2022/05/06 06:25:04;;;;;;;7.25;4.50;;;;;;;16.65;100.00;100889.66;4994539;28;20078;-68
2022/05/06 06:27:31;;;;;;;6.10;4.45;;;;;;;17.02;100.00;100918.16;5012400;28;20060;-68
2022/05/06 06:29:56;;;;;;;9.23;3.67;;;;;;;17.94;92.08;100898.91;4994563;28;20037;-68
2022/05/06 06:32:22;;;;;;;5.72;3.35;;;;;;;17.37;87.88;100874.78;5011986;28;20156;-68
2022/05/06 06:34:47;;;;;;;8.68;4.65;;;;;;;18.11;90.56;100952.22;5012406;28;20495;-69
2022/05/06 06:37:13;;;;;;;6.57;3.95;;;;;;;17.84;85.38;100958.53;5012211;28;20488;-69
2022/05/06 06:39:39;;;;;;;7.53;4.32;;;;;;;18.08;83.69;100965.22;5012113;28;20440;-68
2022/05/06 06:42:05;;;;;;;6.40;3.63;;;;;;;17.55;77.68;100925.50;4994933;28;20034;-68
2022/05/06 06:44:30;;;;;;;5.05;3.10;;;;;;;17.64;76.23;100961.09;5008120;28;20029;-69
2022/05/06 06:46:55;;;;;;;6.28;3.00;;;;;;;18.93;72.31;100931.34;5009999;28;20116;-69
2022/05/06 06:49:21;;;;;;;5.65;2.88;;;;;;;18.88;72.27;100962.47;5012126;28;20033;-69
2022/05/06 06:51:46;;;;;;;6.22;3.30;;;;;;;18.42;74.35;100913.09;4994038;28;20122;-69
2022/05/06 06:54:12;;;;;;;4.70;2.55;;;;;;;18.27;72.88;100900.88;5012063;28;20030;-68
2022/05/06 06:56:37;;;;;;;4.22;2.40;;;;;;;19.02;71.76;100944.63;5011958;28;20467;-68
2022/05/06 06:59:03;;;;;;;5.78;2.63;;;;;;;19.07;71.20;100920.38;5011803;28;20083;-67
2022/05/06 07:01:32;;;;;;;4.28;2.53;;;;;;;19.45;72.82;100948.56;4993158;28;20115;-68
2022/05/06 07:03:58;;;;;;;6.68;2.60;;;;;;;19.24;70.07;100949.59;5011215;28;20117;-68
2022/05/06 07:11:56;;;;;;;4.43;2.50;;;;;;;18.87;67.15;100911.00;4991817;28;20041;-69
2022/05/06 07:14:23;;;;;;;7.38;2.75;;;;;;;18.05;71.88;100926.72;4990854;28;20034;-69
2022/05/06 07:16:53;;;;;;;9.40;2.50;;;;;;;18.84;72.54;100950.63;4989867;28;20129;-68
2022/05/06 07:19:20;;;;;;;5.63;2.42;;;;;;;19.81;71.63;100909.78;4992018;28;20037;-68
2022/05/06 07:21:45;;;;;;;7.18;2.40;;;;;;;19.51;69.30;100947.47;4990826;28;20068;-68
2022/05/06 07:24:11;;;;;;;5.40;2.35;;;;;;;19.54;68.23;100945.56;5002479;28;20041;-69
2022/05/06 07:26:36;;;;;;;5.63;2.47;;;;;;;19.54;66.36;100906.84;5006093;28;20030;-69
2022/05/06 07:29:02;;;;;;;6.72;2.60;;;;;;;19.31;69.72;100939.81;5009887;28;20038;-68
2022/05/06 07:31:28;;;;;;;5.63;2.72;;;;;;;20.14;68.25;100941.63;4993405;28;20089;-69
2022/05/06 07:33:54;;;;;;;4.05;2.38;;;;;;;19.15;65.92;100905.38;5011318;28;20038;-69
2022/05/06 07:36:19;;;;;;;6.38;2.90;;;;;;;19.67;64.60;100949.19;5011150;28;20516;-69
2022/05/06 07:38:45;;;;;;;5.78;3.17;;;;;;;19.51;67.16;100903.59;5010425;28;20117;-69
2022/05/06 07:41:10;;;;;;;5.72;2.97;;;;;;;19.83;68.17;100897.63;5009537;28;20120;-69
2022/05/06 07:43:36;;;;;;;4.45;2.67;;;;;;;20.45;64.56;100938.28;5010740;28;20406;-69
2022/05/06 07:46:02;;;;;;;3.85;2.35;;;;;;;20.89;62.69;100938.47;5028827;28;20635;-69
2022/05/06 07:48:27;;;;;;;4.32;2.90;;;;;;;20.05;65.80;100892.19;5030502;28;20082;-69
2022/05/06 07:50:52;;;;;;;8.13;2.80;;;;;;;20.82;65.30;100931.97;5030526;28;20515;-69
2022/05/06 07:53:19;;;;;;;4.18;2.60;;;;;;;21.11;63.33;100951.91;5030380;28;20033;-69
2022/05/06 07:55:45;;;;;;;5.57;2.50;;;;;;;20.93;61.60;100858.06;5012517;28;20034;-69
2022/05/06 07:58:12;;;;;;;8.10;2.90;;;;;;;20.84;60.95;100925.78;5030878;28;20112;-69
2022/05/06 08:00:37;;;;;;;8.73;2.50;;;;;;;21.36;61.25;100949.59;5006030;28;20037;-69
2022/05/06 08:05:47;;;;;;;5.32;2.38;;;;;;;21.06;59.24;100897.84;4990985;28;20072;-68
2022/05/06 08:08:16;;;;;;;10.80;7.60;;;;;;;21.05;58.11;100905.69;4973822;28;20026;-68
2022/05/06 08:10:41;;;;;;;6.70;2.55;;;;;;;21.98;56.08;100918.34;4992060;28;20029;-67
2022/05/06 08:13:07;;;;;;;43.08;27.20;;;;;;;21.61;54.89;100895.50;4991744;28;20042;-68
2022/05/06 08:15:33;;;;;;;6.90;2.50;;;;;;;20.78;55.33;100894.28;4998993;28;20488;-69
2022/05/06 08:17:59;;;;;;;5.35;2.55;;;;;;;21.96;55.64;100927.97;5007145;28;20167;-70
2022/05/06 08:20:24;;;;;;;8.77;3.95;;;;;;;22.29;55.07;100932.84;5012263;28;20041;-69
2022/05/06 08:22:50;;;;;;;5.10;2.80;;;;;;;22.24;57.52;100934.91;5029652;28;20033;-70
2022/05/06 08:25:15;;;;;;;7.47;2.50;;;;;;;23.24;55.63;100940.63;5029817;28;20030;-69
2022/05/06 08:27:42;;;;;;;6.72;2.20;;;;;;;22.63;56.53;100885.81;5031542;28;20026;-69
2022/05/06 08:30:10;;;;;;;5.40;2.70;;;;;;;22.73;54.94;100930.97;5032481;28;20057;-69
2022/05/06 08:32:36;;;;;;;7.40;2.33;;;;;;;22.03;55.14;100892.97;5015223;28;20069;-70
2022/05/06 08:35:03;;;;;;;7.00;2.70;;;;;;;23.05;52.47;100918.56;5025941;28;20037;-70
2022/05/06 08:37:29;;;;;;;4.72;2.30;;;;;;;22.43;49.92;100900.00;5016328;28;20116;-69
2022/05/06 08:39:54;;;;;;;4.03;2.33;;;;;;;23.11;49.42;100938.91;5033907;28;20033;-69
2022/05/06 08:42:21;;;;;;;6.47;2.28;;;;;;;22.89;50.44;100921.31;5025412;28;20482;-71
2022/05/06 08:53:07;;;;;;;4.15;2.15;;;;;;;22.24;50.93;100940.09;4994329;28;20040;-70
2022/05/06 08:55:33;;;;;;;5.55;2.50;;;;;;;23.07;51.81;100876.00;5013581;28;20038;-70
2022/05/06 08:57:59;;;;;;;5.22;2.30;;;;;;;22.68;53.06;100922.63;5014199;28;20040;-70
2022/05/06 09:00:25;;;;;;;5.70;2.20;;;;;;;23.41;52.64;100921.38;5014219;28;20458;-69
2022/05/06 09:02:53;;;;;;;7.85;2.78;;;;;;;22.53;52.13;100935.69;5013521;28;20042;-69
2022/05/06 09:05:20;;;;;;;6.85;2.25;;;;;;;23.24;51.64;100874.88;4996541;28;20034;-69
2022/05/06 09:08:02;;;;;;;8.10;2.40;;;;;;;23.93;50.89;100893.56;4996234;28;20396;-69
2022/05/06 09:10:27;;;;;;;;;;;;;;;23.02;52.27;100924.75;5014312;28;20034;-69
2022/05/06 09:13:00;;;;;;;3.30;2.20;;;;;;;23.07;50.90;100921.88;5013459;28;19944;-70
2022/05/06 09:18:18;;;;;;;4.45;2.38;;;;;;;22.97;50.86;100871.50;5014109;28;20103;-70
2022/05/06 09:20:43;;;;;;;6.57;2.40;;;;;;;23.34;48.75;100847.41;5013367;28;20109;-70
2022/05/06 09:23:28;;;;;;;4.57;2.60;;;;;;;23.04;50.61;100909.94;4995426;28;20038;-70
2022/05/06 09:25:54;;;;;;;7.13;1.92;;;;;;;23.96;48.82;100908.94;5013644;28;20112;-71
2022/05/06 09:28:24;;;;;;;4.53;2.33;;;;;;;24.27;48.14;100875.66;4996177;28;20032;-71
2022/05/06 09:31:07;;;;;;;4.63;2.40;;;;;;;23.53;50.19;100907.56;5013345;28;20095;-71
2022/05/06 09:33:42;;;;;;;5.00;2.70;;;;;;;22.82;51.11;100877.69;5013447;28;20029;-70
2022/05/06 09:36:26;;;;;;;4.63;2.17;;;;;;;23.86;49.91;100907.06;5008893;28;20060;-70
2022/05/06 09:39:06;;;;;;;9.38;2.60;;;;;;;23.57;47.35;100853.69;5012945;28;20037;-70
2022/05/06 09:41:32;;;;;;;6.87;2.83;;;;;;;23.47;46.24;100892.41;4996068;28;20026;-72
2022/05/06 09:44:02;;;;;;;4.10;2.35;;;;;;;23.08;45.79;100882.00;5013727;28;20476;-70
2022/05/06 09:46:28;;;;;;;6.22;2.60;;;;;;;23.32;45.50;100819.91;5013740;28;20057;-70
2022/05/06 09:48:56;;;;;;;4.57;2.20;;;;;;;23.61;45.66;100835.16;5013119;28;20500;-70
2022/05/06 09:51:29;;;;;;;6.50;2.50;;;;;;;22.92;45.97;100827.69;5013381;28;20022;-72
2022/05/06 09:53:56;;;;;;;6.22;2.15;;;;;;;23.44;45.09;100878.78;5013014;28;20091;-70
2022/05/06 09:56:22;;;;;;;5.05;2.10;;;;;;;23.90;44.52;100846.16;5013425;28;20030;-70
2022/05/06 09:58:51;;;;;;;5.78;2.50;;;;;;;23.72;44.54;100881.19;5012591;28;20042;-70
2022/05/06 10:01:17;;;;;;;6.82;2.55;;;;;;;22.41;44.94;100834.44;5012838;28;20076;-70
2022/05/06 10:03:43;;;;;;;6.05;2.90;;;;;;;22.47;45.16;100832.38;5009821;28;20191;-71
2022/05/06 10:06:11;;;;;;;5.15;2.60;;;;;;;23.34;45.89;100869.94;5008610;28;20426;-70
2022/05/06 10:08:51;;;;;;;6.55;2.40;;;;;;;22.98;45.36;100892.16;5002053;28;20124;-70
2022/05/06 10:11:24;;;;;;;5.03;2.30;;;;;;;23.55;44.13;100824.38;5005369;28;20412;-70
2022/05/06 10:13:52;;;;;;;4.05;2.08;;;;;;;24.52;43.69;100867.78;5028760;28;20021;-73
2022/05/06 10:16:18;;;;;;;9.02;2.70;;;;;;;23.46;44.23;100812.84;4997434;28;20050;-70
2022/05/06 10:18:44;;;;;;;8.07;2.47;;;;;;;22.08;45.96;100807.22;5001294;28;20031;-70
2022/05/06 10:21:14;;;;;;;4.60;2.20;;;;;;;23.68;45.18;100845.97;5010438;28;20041;-70
2022/05/06 10:23:56;;;;;;;9.40;2.67;;;;;;;23.79;45.71;100810.53;5012197;28;20040;-70
2022/05/06 10:26:36;;;;;;;11.13;2.83;;;;;;;23.01;45.91;100847.03;4992755;28;20045;-70
2022/05/06 10:34:35;;;;;;;5.45;2.22;;;;;;;24.05;45.02;100809.56;5011824;28;20065;-69
2022/05/06 10:37:02;;;;;;;8.02;3.67;;;;;;;23.10;47.47;100838.63;5017221;28;20050;-68
2022/05/06 10:39:34;;;;;;;5.68;2.33;;;;;;;23.21;46.30;100798.06;5027607;28;20072;-69
2022/05/06 10:42:06;;;;;;;8.73;2.50;;;;;;;24.00;46.94;100852.41;5014412;28;20061;-68
2022/05/06 10:44:37;;;;;;;8.07;2.88;;;;;;;22.46;48.79;100861.84;5032114;28;20085;-71
2022/05/06 10:47:12;;;;;;;;;;;;;;;22.53;47.46;100857.91;5015002;28;20033;-74
2022/05/06 10:49:41;;;;;;;11.80;3.03;;;;;;;22.11;47.64;100858.84;5014708;28;19964;-71
2022/05/06 10:52:15;;;;;;;7.15;2.60;;;;;;;22.59;46.88;100847.19;5001240;28;20050;-67
2022/05/06 10:54:49;;;;;;;8.52;2.55;;;;;;;22.83;48.34;100828.31;5022802;28;20045;-70
2022/05/06 10:57:15;;;;;;;4.63;2.67;;;;;;;22.80;47.45;100819.91;5009459;28;20034;-70
2022/05/06 10:59:55;;;;;;;6.03;2.65;;;;;;;23.15;47.94;100733.63;5010934;28;20096;-72
2022/05/06 11:02:22;;;;;;;5.45;2.50;;;;;;;22.46;48.35;100790.09;4994158;28;20424;-69
2022/05/06 11:04:52;;;;;;;6.10;2.60;;;;;;;22.68;49.16;100837.06;5012141;28;20463;-70
2022/05/06 11:07:18;;;;;;;6.93;2.78;;;;;;;23.27;48.01;100810.63;4994351;28;20095;-69
2022/05/06 11:09:44;;;;;;;6.13;2.70;;;;;;;23.53;48.29;100819.28;5005168;28;20455;-70
2022/05/06 11:12:10;;;;;;;7.38;2.60;;;;;;;23.19;48.25;100775.75;5011681;28;20048;-70
2022/05/06 11:14:36;;;;;;;4.07;2.40;;;;;;;22.85;48.30;100817.81;5011005;28;20037;-69
2022/05/06 11:17:18;;;;;;;4.25;2.38;;;;;;;23.23;46.67;100780.63;4977654;28;20550;-69
2022/05/06 11:19:44;;;;;;;3.95;2.35;;;;;;;23.13;48.64;100796.94;4993933;28;20030;-68
2022/05/06 11:22:10;;;;;;;6.18;2.70;;;;;;;23.71;48.96;100760.88;5007502;28;20032;-69
2022/05/06 11:24:36;;;;;;;9.02;2.65;;;;;;;24.25;48.67;100807.31;4989568;28;20121;-67
2022/05/06 11:27:15;;;;;;;6.88;2.40;;;;;;;23.88;48.57;100796.91;5009755;28;20038;-69
2022/05/06 11:29:49;;;;;;;6.72;2.70;;;;;;;23.11;48.40;100796.19;4997281;28;20034;-69
2022/05/06 11:32:16;;;;;;;6.80;4.07;;;;;;;23.92;47.95;100766.34;4993420;28;20492;-69
2022/05/06 11:35:00;;;;;;;4.72;2.65;;;;;;;22.99;48.54;100742.53;5000722;28;20428;-69
2022/05/06 11:37:34;;;;;;;6.85;3.95;;;;;;;22.91;48.17;100794.09;4991760;28;20066;-69
2022/05/06 11:40:18;;;;;;;5.75;3.05;;;;;;;23.23;48.72;100782.41;4974102;28;20053;-70
2022/05/06 11:42:44;;;;;;;5.90;2.95;;;;;;;22.43;47.96;100734.09;4973976;28;20034;-69
2022/05/06 11:48:06;;;;;;;4.97;2.60;;;;;;;23.61;47.82;100783.22;4991391;28;20036;-69
2022/05/06 11:50:36;;;;;;;5.03;2.55;;;;;;;23.31;47.21;100710.06;4974015;28;20481;-69
2022/05/06 11:53:08;;;;;;;6.70;2.67;;;;;;;23.47;48.85;100744.44;4991042;28;20038;-69
2022/05/06 11:55:35;;;;;;;7.20;3.08;;;;;;;23.89;46.88;100766.53;4972827;28;20034;-69
2022/05/06 11:58:04;;;;;;;9.07;2.80;;;;;;;24.33;46.87;100766.84;4973212;28;20475;-69
2022/05/06 12:00:29;;;;;;;10.18;2.70;;;;;;;23.90;48.59;100714.50;4973161;28;20105;-69
2022/05/06 12:02:55;;;;;;;5.85;2.67;;;;;;;23.89;47.09;100758.75;4990048;28;20509;-69